Time;durP1;ratioP1;P1;durP2;ratioP2;P2;SDS_P1;SDS_P2;PMS_P1;PMS_P2;Temp;Humidity;BMP_temperature;BMP_pressure;BME280_temperature;BME280_humidity;BME280_pressure;Samples;Min_cycle;Max_cycle;Signal;HPM_P1;HPM_P2
2021/12/08 00:01:17;;;;;;;578.88;224.55;;;;;;;5.57;49.92;99393.69;4388955;32;20273;-81
2021/12/08 00:03:44;;;;;;;567.67;222.85;;;;;;;5.43;50.09;99405.28;4392284;32;787248;-81
2021/12/08 00:06:11;;;;;;;544.85;222.52;;;;;;;5.37;50.32;99407.66;4428996;32;20297;-82
2021/12/08 00:08:39;;;;;;;534.92;217.98;;;;;;;5.45;50.10;99397.59;4429446;32;20284;-80
2021/12/08 00:13:52;;;;;;;546.45;218.40;;;;;;;5.59;49.75;99417.72;4428157;32;20656;-80
2021/12/08 00:16:19;;;;;;;540.12;222.88;;;;;;;5.45;50.20;99419.00;4429232;32;20274;-80
2021/12/08 00:18:48;;;;;;;531.35;220.90;;;;;;;5.31;50.60;99410.03;4428489;32;20271;-80
2021/12/08 00:21:17;;;;;;;527.42;220.93;;;;;;;5.46;50.21;99410.50;4428561;32;20280;-80
2021/12/08 00:23:45;;;;;;;523.47;220.60;;;;;;;5.39;50.52;99411.12;4440155;32;20271;-81
2021/12/08 00:26:12;;;;;;;526.70;218.43;;;;;;;5.42;50.27;99418.91;4440317;32;20291;-81
2021/12/08 00:28:38;;;;;;;525.87;220.70;;;;;;;5.48;50.13;99413.97;4427755;32;20287;-81
2021/12/08 00:31:06;;;;;;;533.17;222.10;;;;;;;5.31;50.61;99425.44;4428872;32;21122;-82
2021/12/08 00:33:34;;;;;;;545.53;220.43;;;;;;;5.56;49.70;99422.78;4428512;32;20336;-80
2021/12/08 00:36:05;;;;;;;572.63;223.18;;;;;;;5.50;49.84;99426.84;4428226;32;20271;-81
2021/12/08 00:38:33;;;;;;;653.90;229.75;;;;;;;5.41;50.43;99427.44;4407978;32;20317;-80
2021/12/08 00:41:00;;;;;;;639.17;232.30;;;;;;;5.23;50.91;99426.88;4414301;32;20321;-82
2021/12/08 00:43:27;;;;;;;643.45;233.87;;;;;;;5.33;50.73;99428.94;4428524;32;20301;-81
2021/12/08 00:45:54;;;;;;;666.97;231.32;;;;;;;5.36;50.72;99423.88;4427573;32;20359;-83
2021/12/08 00:48:22;;;;;;;602.58;226.98;;;;;;;5.10;51.61;99436.75;4427768;32;20355;-81
2021/12/08 00:50:49;;;;;;;587.20;226.32;;;;;;;5.36;50.54;99429.03;4415820;32;20263;-81
2021/12/08 00:53:17;;;;;;;584.50;224.57;;;;;;;5.28;50.97;99435.59;4430222;32;20280;-81
2021/12/08 00:55:44;;;;;;;591.40;227.13;;;;;;;5.29;50.71;99427.06;4416368;32;20272;-80
2021/12/08 00:58:10;;;;;;;586.67;222.55;;;;;;;5.32;50.69;99432.28;4430120;32;20276;-80
2021/12/08 01:00:42;;;;;;;585.15;225.32;;;;;;;5.42;50.50;99433.44;4429767;32;20324;-81
2021/12/08 01:03:10;;;;;;;591.05;226.80;;;;;;;5.39;50.38;99429.09;4400950;32;20770;-81
2021/12/08 01:05:44;;;;;;;604.40;224.57;;;;;;;5.41;50.36;99432.56;3801587;32;20004147;-81
2021/12/08 01:08:11;;;;;;;593.15;225.38;;;;;;;5.43;50.15;99435.22;4402079;32;20281;-81
2021/12/08 01:10:41;;;;;;;584.60;225.65;;;;;;;5.09;51.01;99435.03;4418293;32;20796;-81
2021/12/08 01:13:11;;;;;;;573.72;223.15;;;;;;;5.42;50.23;99439.44;4414029;32;20336;-81
2021/12/08 01:15:47;;;;;;;581.20;221.47;;;;;;;5.44;50.09;99435.25;4420358;32;20288;-80
2021/12/08 01:18:15;;;;;;;581.25;224.15;;;;;;;5.53;49.71;99422.69;4428379;32;20284;-81
2021/12/08 01:20:44;;;;;;;587.22;226.20;;;;;;;5.54;49.77;99420.97;4428822;32;20310;-81
2021/12/08 01:23:12;;;;;;;604.62;223.23;;;;;;;5.33;50.21;99423.78;4428445;32;20317;-81
2021/12/08 01:25:39;;;;;;;579.17;225.32;;;;;;;5.46;49.41;99414.75;4430620;32;20333;-81
2021/12/08 01:28:06;;;;;;;578.17;222.52;;;;;;;5.38;49.76;99411.94;4430232;32;20271;-81
2021/12/08 01:30:33;;;;;;;602.22;227.50;;;;;;;5.38;49.82;99401.69;4425131;32;20322;-81
2021/12/08 01:33:00;;;;;;;639.97;233.75;;;;;;;5.29;49.69;99406.53;4420375;32;20274;-83
2021/12/08 01:35:27;;;;;;;726.75;236.68;;;;;;;5.17;49.93;99401.03;4414766;32;20308;-81
2021/12/08 01:37:54;;;;;;;724.62;239.93;;;;;;;5.21;49.89;99392.63;4438971;32;20317;-81
2021/12/08 01:40:22;;;;;;;697.37;234.62;;;;;;;5.33;49.63;99383.59;4426414;32;20662;-81
2021/12/08 01:42:52;;;;;;;719.00;236.37;;;;;;;5.29;49.71;99375.75;4413896;32;20578;-81
2021/12/08 01:48:11;;;;;;;726.75;242.48;;;;;;;5.31;49.69;99381.81;4413097;32;20272;-83
2021/12/08 01:50:39;;;;;;;717.87;235.85;;;;;;;5.13;50.20;99375.28;4398648;32;20343;-80
2021/12/08 01:53:08;;;;;;;705.42;235.88;;;;;;;5.37;49.56;99379.44;4411079;32;20271;-80
2021/12/08 01:55:36;;;;;;;693.97;234.85;;;;;;;5.39;49.21;99377.75;4421113;32;20294;-80
2021/12/08 01:58:05;;;;;;;715.15;235.73;;;;;;;5.42;49.19;99371.84;4414756;32;20661;-80
2021/12/08 02:00:39;;;;;;;705.28;235.93;;;;;;;5.12;49.99;99373.56;4413543;32;20377;-81
2021/12/08 02:03:07;;;;;;;724.03;240.52;;;;;;;5.16;49.96;99363.38;4418980;32;20268;-81
2021/12/08 02:05:34;;;;;;;735.90;240.73;;;;;;;5.31;49.33;99368.97;4433587;32;21070;-81
2021/12/08 02:08:01;;;;;;;845.75;252.93;;;;;;;5.32;49.25;99360.44;4429596;32;21032;-81
2021/12/08 02:10:28;;;;;;;848.65;249.55;;;;;;;5.31;49.15;99368.97;4437788;32;20276;-82
2021/12/08 02:12:56;;;;;;;712.73;238.47;;;;;;;5.04;50.11;99362.22;4429814;32;20299;-82
2021/12/08 02:15:22;;;;;;;707.72;237.27;;;;;;;5.08;49.91;99351.22;4439020;32;20282;-81
2021/12/08 02:17:53;;;;;;;705.70;238.00;;;;;;;5.03;49.78;99336.50;4417246;32;20264;-81
2021/12/08 02:20:25;;;;;;;707.87;234.27;;;;;;;5.41;48.63;99334.19;4430129;32;20652;-82
2021/12/08 02:22:52;;;;;;;700.10;238.87;;;;;;;5.07;49.54;99334.09;4429522;32;20268;-82
2021/12/08 02:25:22;;;;;;;734.08;240.15;;;;;;;5.21;48.95;99333.62;4429903;32;20333;-81
2021/12/08 02:27:50;;;;;;;718.17;234.93;;;;;;;5.17;48.95;99339.47;4431637;32;20307;-81
2021/12/08 02:46:49;;;;;;;847.25;256.90;;;;;;;4.87;49.47;99350.56;4444047;32;20278;-81
2021/12/08 02:49:19;;;;;;;956.20;377.30;;;;;;;4.84;49.23;99360.72;4431177;32;20270;-81
2021/12/08 02:51:48;;;;;;;900.08;306.95;;;;;;;4.94;48.78;99367.84;4444713;32;20342;-81
2021/12/08 02:54:15;;;;;;;882.83;282.47;;;;;;;4.41;50.38;99374.72;4421952;32;20284;-81
2021/12/08 02:56:42;;;;;;;883.03;274.83;;;;;;;4.80;48.97;99384.53;4422228;32;20352;-82
2021/12/08 02:59:09;;;;;;;865.80;260.23;;;;;;;4.44;49.88;99379.97;4414440;32;20338;-81
2021/12/08 03:01:37;;;;;;;849.78;250.02;;;;;;;4.46;49.75;99383.41;4431812;32;20262;-81
2021/12/08 03:04:05;;;;;;;841.47;247.05;;;;;;;4.56;49.54;99385.50;4430509;32;20367;-81
2021/12/08 03:06:32;;;;;;;870.33;261.70;;;;;;;4.58;49.15;99383.81;4435719;32;21044;-80
2021/12/08 03:09:01;;;;;;;884.67;280.00;;;;;;;4.72;48.95;99380.84;4429237;32;20318;-80
2021/12/08 03:11:28;;;;;;;879.63;274.13;;;;;;;4.64;49.01;99368.66;4430080;32;20338;-79
2021/12/08 03:14:03;;;;;;;882.42;277.20;;;;;;;4.90;48.34;99371.16;4434700;32;20268;-80
2021/12/08 03:16:30;;;;;;;895.12;295.75;;;;;;;4.64;48.93;99378.91;4429602;32;20689;-80
2021/12/08 03:18:57;;;;;;;914.78;326.92;;;;;;;4.72;48.86;99385.97;4428950;32;20272;-81
2021/12/08 03:21:31;;;;;;;943.17;354.08;;;;;;;4.01;50.24;99377.63;4421817;32;20299;-80
2021/12/08 03:26:54;;;;;;;973.08;396.75;;;;;;;4.29;50.25;99374.31;4429280;32;20276;-80
2021/12/08 03:29:30;;;;;;;967.35;387.40;;;;;;;4.34;50.12;99375.31;4413873;32;20420;-80
2021/12/08 03:32:05;;;;;;;42.38;23.02;;;;;;;4.55;49.32;99368.34;4431177;32;20274;-80
2021/12/08 03:34:37;;;;;;;48.22;32.58;;;;;;;4.57;49.30;99364.16;4431559;32;20142;-80
2021/12/08 03:37:06;;;;;;;49.58;32.60;;;;;;;3.37;52.23;99371.06;4418415;32;20273;-80
2021/12/08 03:39:35;;;;;;;48.13;33.50;;;;;;;3.04;53.28;99374.13;4429782;32;20298;-80
2021/12/08 03:42:03;;;;;;;52.80;34.22;;;;;;;2.98;53.67;99363.66;4429264;32;20633;-81
2021/12/08 03:44:30;;;;;;;51.45;34.47;;;;;;;2.76;54.27;99373.03;4432659;32;20288;-81
2021/12/08 03:47:01;;;;;;;51.80;34.80;;;;;;;2.83;54.27;99375.81;4430549;32;20264;-80
2021/12/08 03:49:29;;;;;;;52.97;34.75;;;;;;;3.03;53.63;99370.69;4436476;32;20276;-80
2021/12/08 03:52:03;;;;;;;53.38;34.28;;;;;;;3.14;53.39;99363.41;4429569;32;20765;-80
2021/12/08 03:54:30;;;;;;;51.22;34.80;;;;;;;2.91;54.08;99359.13;4428018;32;20333;-80
2021/12/08 03:56:58;;;;;;;52.13;34.42;;;;;;;2.84;54.35;99367.34;4434513;32;20441;-80
2021/12/08 03:59:25;;;;;;;51.58;34.88;;;;;;;2.92;54.22;99365.97;4429510;32;20272;-80
2021/12/08 04:01:52;;;;;;;53.80;35.13;;;;;;;3.07;53.33;99366.56;4433941;32;20280;-80
2021/12/08 04:04:25;;;;;;;53.55;35.65;;;;;;;2.92;53.82;99355.75;4434563;32;20268;-80
2021/12/08 04:06:53;;;;;;;55.58;36.65;;;;;;;2.78;53.86;99368.87;4429376;32;20637;-81
2021/12/08 04:09:40;;;;;;;55.40;36.00;;;;;;;3.11;53.03;99378.63;4432506;32;20323;-81
2021/12/08 04:12:10;;;;;;;53.10;35.30;;;;;;;2.90;53.45;99368.44;4429179;32;20271;-80
2021/12/08 04:14:43;;;;;;;52.50;35.03;;;;;;;3.02;53.09;99379.16;4428980;32;20260;-80
2021/12/08 04:17:18;;;;;;;53.03;34.53;;;;;;;2.95;53.27;99371.19;4435496;32;20300;-81
2021/12/08 04:19:48;;;;;;;49.55;33.40;;;;;;;2.99;53.20;99367.94;4429106;32;20629;-80
2021/12/08 04:22:24;;;;;;;49.75;32.70;;;;;;;3.05;52.98;99375.84;4429357;32;20336;-81
2021/12/08 04:24:52;;;;;;;52.00;33.43;;;;;;;2.76;53.52;99375.59;4427622;32;20999;-82
2021/12/08 04:27:27;;;;;;;51.05;32.95;;;;;;;2.60;54.23;99368.13;4435347;32;20662;-82
2021/12/08 04:29:55;;;;;;;48.75;32.10;;;;;;;2.04;55.57;99359.00;4425919;32;20294;-79
2021/12/08 04:32:25;;;;;;;51.15;34.20;;;;;;;2.55;54.40;99356.84;4427167;32;20272;-79
2021/12/08 04:34:54;;;;;;;51.15;33.60;;;;;;;2.83;53.65;99360.50;4428269;32;20322;-79
2021/12/08 04:37:28;;;;;;;51.03;34.85;;;;;;;2.42;54.53;99362.25;4431221;32;20635;-79
2021/12/08 04:45:40;;;;;;;51.90;35.70;;;;;;;2.98;52.96;99371.31;4431426;32;20301;-79
2021/12/08 05:00:15;;;;;;;52.60;35.08;;;;;;;2.57;53.89;99373.12;4407231;32;20264;-81
2021/12/08 05:02:46;;;;;;;53.67;34.92;;;;;;;2.53;53.04;99376.34;4420189;32;20295;-82
2021/12/08 05:05:38;;;;;;;44.70;31.30;;;;;;;2.48;53.35;99377.84;4422103;32;20306;-79
2021/12/08 05:08:21;;;;;;;46.50;32.22;;;;;;;2.33;53.44;99378.97;4412861;32;20266;-79
2021/12/08 05:10:51;;;;;;;42.67;29.73;;;;;;;2.73;52.54;99367.78;4405973;32;20641;-79
2021/12/08 05:13:18;;;;;;;43.42;30.08;;;;;;;2.51;52.89;99368.63;4428132;32;20311;-79
2021/12/08 05:15:52;;;;;;;41.83;29.37;;;;;;;2.56;52.46;99381.59;4434395;32;20270;-80
2021/12/08 05:18:29;;;;;;;37.50;27.97;;;;;;;2.16;52.92;99394.38;4426147;32;20313;-80
2021/12/08 05:21:05;;;;;;;37.25;26.75;;;;;;;2.10;52.70;99375.44;4427470;32;20299;-80
2021/12/08 05:23:39;;;;;;;37.22;27.30;;;;;;;2.23;52.25;99376.81;4434090;32;20323;-79
2021/12/08 05:26:14;;;;;;;37.05;26.70;;;;;;;2.31;52.10;99384.81;4427995;32;20292;-79
2021/12/08 05:28:42;;;;;;;38.67;27.40;;;;;;;2.11;52.98;99376.34;4419107;32;20252;-81
2021/12/08 05:31:14;;;;;;;36.35;26.75;;;;;;;2.25;52.74;99377.78;4420587;32;20300;-80
2021/12/08 05:33:43;;;;;;;37.90;27.15;;;;;;;2.46;52.26;99370.13;4423544;32;20688;-79
2021/12/08 05:36:11;;;;;;;39.67;27.42;;;;;;;2.63;51.59;99378.47;4422280;32;20607;-80
2021/12/08 05:38:39;;;;;;;37.97;27.52;;;;;;;2.40;52.04;99364.78;4426518;32;20365;-77
2021/12/08 05:41:19;;;;;;;40.90;29.07;;;;;;;2.29;52.34;99354.09;4419716;32;20780;-78
2021/12/08 05:43:47;;;;;;;40.35;27.90;;;;;;;2.53;51.70;99351.69;4428812;32;20266;-78
2021/12/08 05:46:16;;;;;;;37.83;27.67;;;;;;;2.27;52.40;99358.28;4441271;32;20276;-77
2021/12/08 05:48:46;;;;;;;39.13;27.70;;;;;;;2.40;51.71;99366.47;4425819;32;21077;-77
2021/12/08 05:51:26;;;;;;;40.42;27.98;;;;;;;2.33;52.12;99368.75;4428640;32;20635;-77
2021/12/08 05:53:56;;;;;;;37.17;26.70;;;;;;;2.25;52.03;99375.22;4434103;32;20296;-77
2021/12/08 05:56:23;;;;;;;37.75;26.95;;;;;;;2.14;52.01;99371.38;4445555;32;20744;-78
2021/12/08 05:58:52;;;;;;;39.30;28.45;;;;;;;2.31;52.02;99375.47;4435513;32;20272;-77
2021/12/08 06:02:02;;;;;;;38.78;28.87;;;;;;;2.02;52.82;99373.41;4428245;32;20312;-77
2021/12/08 06:04:30;;;;;;;39.67;28.95;;;;;;;1.64;53.16;99367.50;4429922;32;20275;-77
2021/12/08 06:06:58;;;;;;;41.07;28.97;;;;;;;1.98;52.42;99379.16;4435818;32;20459;-78
2021/12/08 06:09:27;;;;;;;42.17;30.33;;;;;;;1.95;52.29;99379.06;4432158;32;20268;-78
2021/12/08 06:11:55;;;;;;;45.75;30.60;;;;;;;1.90;52.64;99383.94;4434215;32;20269;-78
2021/12/08 06:14:25;;;;;;;42.53;29.58;;;;;;;1.91;52.61;99389.91;4440691;32;20288;-78
2021/12/08 06:16:52;;;;;;;39.95;29.60;;;;;;;1.86;52.46;99390.59;4428134;32;20290;-77
2021/12/08 06:19:20;;;;;;;40.20;28.90;;;;;;;1.99;52.19;99386.03;4418612;32;20250;-77
2021/12/08 06:21:48;;;;;;;43.13;30.33;;;;;;;1.78;52.71;99385.97;4422074;32;20272;-79
2021/12/08 06:24:17;;;;;;;42.97;31.23;;;;;;;1.71;52.91;99379.72;4444899;32;20286;-78
2021/12/08 06:26:44;;;;;;;42.60;30.33;;;;;;;2.10;52.39;99382.22;4445244;32;20283;-79
2021/12/08 06:29:15;;;;;;;43.20;31.23;;;;;;;1.98;52.25;99384.25;4422427;32;20256;-78
2021/12/08 06:31:42;;;;;;;42.03;30.35;;;;;;;2.49;50.62;99379.56;4430757;32;20286;-79
2021/12/08 06:34:09;;;;;;;43.85;30.27;;;;;;;2.10;51.79;99382.22;4445004;32;20283;-78
2021/12/08 06:37:01;;;;;;;48.42;30.40;;;;;;;1.79;52.69;99387.72;4433801;32;20347;-79
2021/12/08 06:39:34;;;;;;;43.22;30.80;;;;;;;1.86;52.60;99395.69;4433221;32;20291;-79
2021/12/08 06:42:08;;;;;;;48.28;34.65;;;;;;;2.13;51.81;99389.16;4434718;32;20270;-78
2021/12/08 06:44:41;;;;;;;46.05;34.58;;;;;;;2.02;52.66;99396.38;4430405;32;20282;-79
2021/12/08 06:47:31;;;;;;;45.25;32.80;;;;;;;1.91;53.07;99392.47;4432735;32;21103;-79
2021/12/08 06:50:07;;;;;;;43.55;32.15;;;;;;;2.04;52.80;99384.53;4421953;32;20313;-79
2021/12/08 06:52:38;;;;;;;42.55;29.73;;;;;;;1.94;52.91;99382.41;4434056;32;20284;-79
2021/12/08 06:55:15;;;;;;;40.38;30.33;;;;;;;2.07;52.53;99384.66;4424697;32;20274;-79
2021/12/08 06:57:48;;;;;;;39.40;30.17;;;;;;;2.16;52.16;99385.03;4432804;32;20283;-79
2021/12/08 07:00:38;;;;;;;47.97;38.92;;;;;;;2.07;52.73;99389.75;4427307;32;20296;-79
2021/12/08 07:06:41;;;;;;;51.20;37.78;;;;;;;2.53;51.35;99384.03;4413860;32;20573;-79
2021/12/08 07:08:48;;;;;;;72.10;47.00;;;;;;;2.89;50.66;99376.06;4428316;32;20276;-79
2021/12/08 07:11:21;;;;;;;64.60;45.67;;;;;;;2.94;50.26;99375.44;4433302;32;20280;-79
2021/12/08 07:13:53;;;;;;;66.62;49.25;;;;;;;2.99;50.67;99375.59;4443095;32;20270;-79
2021/12/08 07:16:33;;;;;;;59.27;44.10;;;;;;;3.19;50.22;99374.69;4445234;32;20301;-79
2021/12/08 07:19:10;;;;;;;71.28;50.35;;;;;;;2.78;51.21;99376.53;4443394;32;20335;-79
2021/12/08 07:21:42;;;;;;;68.00;49.67;;;;;;;3.56;49.80;99368.37;4444896;32;20275;-79
2021/12/08 07:24:16;;;;;;;55.72;42.10;;;;;;;2.99;51.28;99378.16;4445365;32;20343;-79
2021/12/08 07:26:44;;;;;;;48.05;36.95;;;;;;;2.95;51.53;99378.88;4439929;32;20276;-79
2021/12/08 07:29:13;;;;;;;48.42;35.42;;;;;;;2.85;52.15;99376.78;4436071;32;20268;-78
2021/12/08 07:31:46;;;;;;;44.63;33.50;;;;;;;3.11;51.33;99370.09;4431618;32;20278;-79
2021/12/08 07:34:19;;;;;;;41.25;30.00;;;;;;;2.84;52.28;99378.47;4433125;32;20284;-79
2021/12/08 07:36:59;;;;;;;45.00;31.33;;;;;;;3.00;52.03;99374.81;4427874;32;20280;-79
2021/12/08 07:39:31;;;;;;;45.78;31.65;;;;;;;2.88;52.69;99379.44;4427852;32;20271;-79
2021/12/08 07:42:03;;;;;;;40.85;29.15;;;;;;;3.36;51.86;99379.56;4453526;32;20291;-79
2021/12/08 07:44:30;;;;;;;39.58;27.75;;;;;;;3.54;51.22;99385.34;4430370;32;20310;-79
2021/12/08 07:47:04;;;;;;;38.22;27.45;;;;;;;3.51;50.99;99385.25;4422694;32;20266;-79
2021/12/08 07:49:37;;;;;;;38.33;27.67;;;;;;;3.69;50.20;99383.34;4431634;32;20715;-79
2021/12/08 07:52:12;;;;;;;38.60;29.15;;;;;;;4.10;49.51;99376.25;4429599;32;20676;-80
2021/12/08 07:54:41;;;;;;;38.97;30.95;;;;;;;3.97;49.55;99386.91;4432375;32;20310;-80
2021/12/08 07:57:15;;;;;;;38.03;28.87;;;;;;;3.76;50.24;99393.81;4428828;32;20631;-80
2021/12/08 07:59:46;;;;;;;39.20;27.77;;;;;;;4.27;49.17;99392.19;4424956;32;20303;-80
2021/12/08 08:02:13;;;;;;;37.63;28.38;;;;;;;4.40;48.98;99389.25;4430934;32;20259;-80
2021/12/08 08:04:48;;;;;;;35.92;27.27;;;;;;;4.35;49.53;99384.78;4442098;32;20270;-80
2021/12/08 08:07:16;;;;;;;39.58;27.65;;;;;;;4.52;49.38;99388.75;4444126;32;27122;-79
2021/12/08 08:09:45;;;;;;;36.15;27.30;;;;;;;4.92;48.13;99384.91;4437008;32;20269;-79
2021/12/08 08:12:19;;;;;;;38.33;27.97;;;;;;;4.99;48.24;99380.84;4431035;32;21057;-79
2021/12/08 08:14:56;;;;;;;38.92;30.45;;;;;;;5.41;47.28;99391.50;4427431;32;31129;-79
2021/12/08 08:17:32;;;;;;;40.30;30.65;;;;;;;5.07;47.72;99385.38;4432305;32;20245;-79
2021/12/08 08:20:04;;;;;;;39.38;31.15;;;;;;;5.27;47.85;99387.69;4428059;32;20287;-79
2021/12/08 08:22:31;;;;;;;40.28;31.10;;;;;;;5.35;47.79;99386.19;4435456;32;20368;-79
2021/12/08 08:25:00;;;;;;;38.63;29.70;;;;;;;5.87;47.32;99381.66;4427827;32;20336;-79
2021/12/08 08:27:27;;;;;;;42.20;31.02;;;;;;;6.02;47.46;99390.69;4435243;32;20393;-79
2021/12/08 08:29:56;;;;;;;40.05;28.90;;;;;;;5.83;48.35;99391.00;4428387;32;20302;-80
2021/12/08 08:32:32;;;;;;;41.95;29.98;;;;;;;6.24;47.12;99393.84;4452310;32;20284;-80
2021/12/08 08:35:07;;;;;;;39.45;30.65;;;;;;;6.35;46.85;99402.72;4428291;32;20693;-79
2021/12/08 08:37:34;;;;;;;43.95;33.47;;;;;;;6.50;46.42;99397.06;4428390;32;27109;-80
2021/12/08 08:40:09;;;;;;;57.47;38.30;;;;;;;6.48;46.65;99389.34;4431008;32;20405;-80
2021/12/08 08:42:40;;;;;;;50.22;38.85;;;;;;;6.34;47.69;99400.94;4428199;32;31102;-80
2021/12/08 08:45:13;;;;;;;49.67;37.37;;;;;;;6.52;47.19;99390.28;4431799;32;21015;-80
2021/12/08 08:47:47;;;;;;;47.50;33.95;;;;;;;6.18;49.16;99398.81;4434629;32;20365;-79
2021/12/08 08:50:20;;;;;;;47.60;34.30;;;;;;;6.44;48.13;99397.78;4428227;32;20263;-79
2021/12/08 08:52:50;;;;;;;45.47;33.65;;;;;;;6.21;47.95;99388.63;4433750;32;20272;-79
2021/12/08 08:55:48;;;;;;;49.47;36.97;;;;;;;6.38;48.41;99392.50;4412916;32;20289;-80
2021/12/08 08:58:19;;;;;;;55.75;38.90;;;;;;;6.58;48.13;99392.13;4412629;32;20297;-80
2021/12/08 09:01:00;;;;;;;55.75;40.20;;;;;;;6.80;48.03;99396.09;4412767;32;20273;-80
2021/12/08 09:03:32;;;;;;;53.03;38.07;;;;;;;6.76;47.97;99384.84;4412245;32;20265;-79
2021/12/08 09:06:07;;;;;;;52.20;38.90;;;;;;;7.18;47.30;99378.97;4412378;32;20281;-80
2021/12/08 09:08:39;;;;;;;54.38;38.65;;;;;;;6.66;49.45;99372.59;4412180;32;20327;-80
2021/12/08 09:11:19;;;;;;;52.00;38.00;;;;;;;6.49;50.31;99369.63;4414383;32;20402;-80
2021/12/08 09:14:03;;;;;;;53.15;36.97;;;;;;;6.72;50.00;99377.91;4436259;32;20345;-81
2021/12/08 09:16:35;;;;;;;51.22;36.80;;;;;;;6.74;50.17;99377.09;4445183;32;20278;-80
2021/12/08 09:19:18;;;;;;;53.50;37.50;;;;;;;6.70;50.42;99374.41;4437952;32;20298;-80
2021/12/08 09:22:05;;;;;;;52.22;37.03;;;;;;;6.98;50.01;99366.50;4414544;32;20292;-80
2021/12/08 09:24:54;;;;;;;52.60;38.38;;;;;;;7.04;49.95;99364.91;4413693;32;20266;-79
2021/12/08 09:27:45;;;;;;;56.33;37.88;;;;;;;7.06;49.69;99368.41;4415105;32;20282;-80
2021/12/08 09:30:17;;;;;;;56.78;40.63;;;;;;;7.17;49.66;99367.78;4414687;32;20661;-80
2021/12/08 09:32:52;;;;;;;54.35;40.83;;;;;;;7.16;49.76;99362.63;4407257;32;20720;-79
2021/12/08 09:35:25;;;;;;;56.60;39.97;;;;;;;7.34;48.86;99360.44;4419135;32;20326;-80
2021/12/08 09:37:57;;;;;;;55.80;39.87;;;;;;;7.16;49.28;99350.63;4436455;32;20276;-80
2021/12/08 09:40:47;;;;;;;57.77;42.33;;;;;;;6.92;50.49;99350.94;4429403;32;20259;-80
2021/12/08 09:43:21;;;;;;;57.33;41.10;;;;;;;7.14;49.50;99351.41;4428600;32;20279;-80
2021/12/08 09:46:01;;;;;;;59.40;42.33;;;;;;;7.59;48.78;99342.91;4433916;32;20262;-80
2021/12/08 09:48:29;;;;;;;59.60;42.70;;;;;;;7.57;49.17;99344.59;4434175;32;20305;-80
2021/12/08 09:50:57;;;;;;;58.22;41.05;;;;;;;7.56;48.82;99337.69;4440705;32;20268;-81
2021/12/08 09:53:26;;;;;;;58.75;42.33;;;;;;;7.97;47.64;99332.47;4434398;32;20783;-80
2021/12/08 09:55:54;;;;;;;56.57;40.17;;;;;;;8.13;47.30;99329.31;4430873;32;20678;-80
2021/12/08 09:58:22;;;;;;;58.40;40.90;;;;;;;7.54;48.27;99336.81;4435584;32;20347;-80
2021/12/08 10:00:53;;;;;;;55.47;39.95;;;;;;;7.93;47.69;99336.69;4436349;32;20677;-81
2021/12/08 10:03:21;;;;;;;56.60;39.22;;;;;;;7.68;48.00;99331.06;4428979;32;21381;-81
2021/12/08 10:05:49;;;;;;;55.67;39.10;;;;;;;7.29;49.18;99323.44;4429706;32;20342;-81
2021/12/08 10:08:17;;;;;;;54.63;40.35;;;;;;;7.29;49.38;99320.84;4439688;32;20274;-81
2021/12/08 10:10:45;;;;;;;55.80;39.65;;;;;;;7.08;49.38;99328.09;4426717;32;20265;-81
2021/12/08 10:13:17;;;;;;;55.88;38.75;;;;;;;7.34;48.21;99328.66;4419281;32;20300;-81
2021/12/08 10:15:44;;;;;;;56.37;39.65;;;;;;;7.25;49.36;99313.06;4426006;32;20584;-81
2021/12/08 10:18:12;;;;;;;74.82;43.58;;;;;;;7.27;50.22;99314.78;4446178;32;20318;-81
2021/12/08 10:20:44;;;;;;;67.32;42.70;;;;;;;7.83;47.48;99309.03;4444289;32;20264;-82
2021/12/08 10:23:30;;;;;;;69.25;43.20;;;;;;;8.05;47.09;99308.56;4453157;32;20303;-82
2021/12/08 10:26:20;;;;;;;62.28;42.22;;;;;;;7.99;47.35;99310.19;4436469;32;20283;-81
2021/12/08 10:28:53;;;;;;;59.10;41.55;;;;;;;7.58;48.58;99310.28;4445763;32;20339;-81
2021/12/08 10:31:32;;;;;;;65.35;44.53;;;;;;;8.03;47.26;99293.91;4444189;32;20286;-82
2021/12/08 10:34:06;;;;;;;62.08;45.78;;;;;;;7.69;47.18;99296.75;4423157;32;20282;-81
2021/12/08 10:36:56;;;;;;;63.22;43.38;;;;;;;7.35;49.23;99295.25;4395462;32;20263;-81
2021/12/08 10:39:33;;;;;;;63.03;45.12;;;;;;;7.92;46.99;99292.03;4435742;32;20331;-82
2021/12/08 10:42:14;;;;;;;65.97;45.88;;;;;;;7.84;47.37;99279.84;4414131;32;20752;-81
2021/12/08 10:44:55;;;;;;;66.23;45.73;;;;;;;6.84;50.12;99285.59;4421326;32;20276;-81
2021/12/08 10:47:30;;;;;;;66.93;45.55;;;;;;;7.63;48.41;99275.19;4435723;32;20329;-81
2021/12/08 10:55:34;;;;;;;68.30;47.75;;;;;;;7.30;50.11;99271.09;4428996;32;20275;-80
2021/12/08 10:58:01;;;;;;;65.93;46.83;;;;;;;7.61;48.40;99266.53;4415301;32;20276;-80
2021/12/08 11:00:32;;;;;;;69.60;47.20;;;;;;;7.17;48.93;99261.41;4415688;32;20339;-81
2021/12/08 11:03:08;;;;;;;66.68;45.42;;;;;;;7.32;49.34;99264.28;4429562;32;20339;-81
2021/12/08 11:05:42;;;;;;;64.15;47.25;;;;;;;7.44;48.28;99269.66;4415101;32;20310;-81
2021/12/08 11:08:27;;;;;;;66.95;47.38;;;;;;;7.12;49.08;99255.31;4415346;32;20260;-81
2021/12/08 11:11:12;;;;;;;63.65;46.55;;;;;;;7.16;49.82;99252.81;4429235;32;20284;-80
2021/12/08 11:13:45;;;;;;;62.00;46.70;;;;;;;7.88;48.42;99246.44;4423212;32;20334;-81
2021/12/08 11:16:23;;;;;;;65.28;48.75;;;;;;;7.66;47.71;99244.31;4425656;32;20272;-81
2021/12/08 11:19:01;;;;;;;64.80;47.40;;;;;;;7.33;48.92;99255.72;4420409;32;20266;-80
2021/12/08 11:21:35;;;;;;;69.35;47.65;;;;;;;6.96;49.44;99249.84;4425120;32;20355;-81
2021/12/08 11:24:16;;;;;;;66.53;46.83;;;;;;;7.12;49.86;99245.00;4416702;32;20281;-80
2021/12/08 11:26:47;;;;;;;64.95;43.90;;;;;;;7.21;49.24;99240.00;4407607;32;20351;-80
2021/12/08 11:29:19;;;;;;;62.35;43.65;;;;;;;6.88;50.34;99246.22;4398574;32;20280;-81
2021/12/08 11:31:53;;;;;;;63.30;45.33;;;;;;;6.82;51.05;99245.22;4422875;32;20353;-81
2021/12/08 11:34:24;;;;;;;61.42;42.05;;;;;;;6.99;50.27;99239.59;4411695;32;20618;-82
2021/12/08 11:36:55;;;;;;;59.80;41.05;;;;;;;6.98;49.61;99240.41;4421545;32;20362;-82
2021/12/08 11:39:28;;;;;;;58.78;43.55;;;;;;;7.05;48.83;99243.12;4419658;32;20293;-81
2021/12/08 11:42:06;;;;;;;56.60;41.78;;;;;;;6.62;50.51;99239.66;4412330;32;20367;-82
2021/12/08 11:44:37;;;;;;;63.47;45.50;;;;;;;7.09;49.06;99234.66;4414778;32;20336;-81
2021/12/08 11:47:07;;;;;;;62.15;42.42;;;;;;;7.03;49.56;99225.09;4420447;32;20832;-81
2021/12/08 11:49:36;;;;;;;64.12;44.13;;;;;;;7.10;49.51;99228.66;4435478;32;20321;-81
2021/12/08 11:52:09;;;;;;;63.20;44.60;;;;;;;6.87;50.43;99239.34;4416661;32;20763;-81
2021/12/08 11:54:52;;;;;;;62.78;43.35;;;;;;;7.46;48.85;99226.78;4428312;32;20315;-81
2021/12/08 11:57:21;;;;;;;63.22;42.15;;;;;;;7.14;49.63;99233.03;4439776;32;20285;-81
2021/12/08 11:59:49;;;;;;;62.00;43.35;;;;;;;7.58;49.30;99230.44;4426115;32;20393;-81
2021/12/08 12:02:19;;;;;;;62.17;42.47;;;;;;;7.78;48.29;99223.91;4432561;32;20298;-81
2021/12/08 12:04:46;;;;;;;63.70;42.25;;;;;;;7.41;48.60;99228.41;4439989;32;20282;-81
2021/12/08 12:07:14;;;;;;;57.38;41.65;;;;;;;6.98;50.32;99227.56;4441636;32;20784;-81
2021/12/08 12:09:42;;;;;;;59.58;41.75;;;;;;;7.16;49.79;99221.06;4428189;32;20312;-81
2021/12/08 12:12:10;;;;;;;60.53;41.87;;;;;;;6.98;50.35;99222.41;4427486;32;20397;-80
2021/12/08 12:14:37;;;;;;;57.35;39.40;;;;;;;7.17;49.57;99218.50;4441821;32;20291;-80
2021/12/08 12:17:04;;;;;;;55.95;40.03;;;;;;;7.20;48.94;99217.69;4443427;32;20658;-81
2021/12/08 12:19:37;;;;;;;59.05;40.83;;;;;;;6.64;50.66;99220.84;4428902;32;20281;-80
2021/12/08 12:22:10;;;;;;;55.42;38.90;;;;;;;6.91;50.00;99210.28;4429239;32;20332;-80
2021/12/08 12:24:53;;;;;;;59.57;42.27;;;;;;;6.80;49.92;99211.78;3825746;32;10011163;-80
2021/12/08 12:27:46;;;;;;;59.47;42.47;;;;;;;6.65;50.92;99201.16;4429089;32;20278;-80
2021/12/08 12:30:24;;;;;;;62.37;43.53;;;;;;;7.05;49.80;99208.00;4428882;32;20312;-80
2021/12/08 12:32:53;;;;;;;63.67;45.15;;;;;;;6.77;50.28;99206.56;4413649;32;20362;-80
2021/12/08 12:35:24;;;;;;;66.47;44.80;;;;;;;6.65;51.12;99201.16;4427646;32;20264;-80